createdAt,value
2022-12-24T00:00:54.601Z,0.8
2022-12-24T00:03:55.756Z,0.8
2022-12-24T00:06:54.572Z,0.8
2022-12-24T00:09:54.934Z,0.8
2022-12-24T00:13:00.943Z,0.8
2022-12-24T00:15:55.288Z,0.8
2022-12-24T00:18:55.569Z,0.8
2022-12-24T00:21:55.793Z,0.8
2022-12-24T00:24:57.435Z,0.8
2022-12-24T00:27:51.149Z,0.8
2022-12-24T00:30:56.738Z,0.8
2022-12-24T00:33:58.195Z,0.8
2022-12-24T00:36:52.004Z,0.8
2022-12-24T00:39:57.103Z,0.8
2022-12-24T00:42:53.721Z,0.8
2022-12-24T00:45:52.744Z,0.8
2022-12-24T00:48:52.724Z,0.8
2022-12-24T00:51:54.376Z,0.8
2022-12-24T00:54:53.252Z,0.8
2022-12-24T00:57:53.451Z,0.8
2022-12-24T01:00:53.703Z,0.8
2022-12-24T01:03:55.931Z,0.8
2022-12-24T01:06:54.241Z,0.8
2022-12-24T01:09:54.370Z,0.8
2022-12-24T01:12:55.995Z,0.8
2022-12-24T01:15:55.060Z,0.8
2022-12-24T01:18:55.054Z,0.8
2022-12-24T01:21:56.712Z,0.8
2022-12-24T01:24:55.491Z,0.8
2022-12-24T01:27:55.727Z,0.8
2022-12-24T01:30:57.545Z,0.8
2022-12-24T01:33:56.272Z,0.8
2022-12-24T01:36:56.575Z,0.8
2022-12-24T01:39:51.727Z,0.8
2022-12-24T01:42:53.353Z,0.8
2022-12-24T01:45:52.171Z,0.8
2022-12-24T01:48:52.369Z,0.8
2022-12-24T01:51:53.996Z,0.8
2022-12-24T01:54:53.944Z,0.8
2022-12-24T01:57:53.090Z,0.8
2022-12-24T02:00:54.640Z,0.8
2022-12-24T02:03:54.005Z,0.8
2022-12-24T02:06:53.771Z,0.8
2022-12-24T02:09:55.253Z,0.8
2022-12-24T02:12:54.229Z,0.8
2022-12-24T02:15:54.874Z,0.8
2022-12-24T02:18:54.570Z,0.8
2022-12-24T02:21:56.159Z,0.8
2022-12-24T02:25:00.028Z,0.8
2022-12-24T02:27:55.316Z,0.8
2022-12-24T02:31:02.170Z,0.8
2022-12-24T02:33:55.794Z,0.8
2022-12-24T02:36:56.031Z,0.8
2022-12-24T02:39:57.731Z,0.8
2022-12-24T02:42:56.561Z,0.8
2022-12-24T02:46:00.111Z,0.8
2022-12-24T02:48:58.281Z,0.8
2022-12-24T02:51:52.100Z,0.8
2022-12-24T02:54:52.273Z,0.8
2022-12-24T02:57:53.427Z,0.8
2022-12-24T03:01:04.836Z,0.8
2022-12-24T03:03:53.817Z,0.8
2022-12-24T03:06:53.644Z,0.8
2022-12-24T03:09:54.927Z,0.8
2022-12-24T03:12:53.788Z,0.8
2022-12-24T03:15:54.486Z,0.8
2022-12-24T03:18:55.531Z,0.8
2022-12-24T03:21:54.353Z,0.8
2022-12-24T03:24:54.571Z,0.8
2022-12-24T03:27:56.350Z,0.8
2022-12-24T03:30:55.034Z,0.8
2022-12-24T03:33:55.288Z,0.8
2022-12-24T03:36:55.520Z,0.8
2022-12-24T03:39:57.175Z,0.8
2022-12-24T03:42:55.918Z,0.8
2022-12-24T03:45:56.549Z,0.8
2022-12-24T03:48:57.884Z,0.8
2022-12-24T03:51:56.715Z,0.8
2022-12-24T03:54:51.813Z,0.8
2022-12-24T03:57:53.522Z,0.8
2022-12-24T04:00:57.584Z,0.8
2022-12-24T04:03:52.631Z,0.8
2022-12-24T04:06:55.113Z,0.8
2022-12-24T04:09:53.022Z,0.8
2022-12-24T04:12:53.242Z,0.8
2022-12-24T04:15:53.397Z,0.8
2022-12-24T04:18:55.073Z,0.8
2022-12-24T04:21:53.966Z,0.8
2022-12-24T04:24:54.126Z,0.8
2022-12-24T04:27:55.721Z,0.8
2022-12-24T04:30:54.542Z,0.8
2022-12-24T04:33:54.919Z,0.8
2022-12-24T04:36:56.519Z,0.8
2022-12-24T04:39:55.219Z,0.8
2022-12-24T04:42:55.488Z,0.8
2022-12-24T04:45:57.475Z,0.8
2022-12-24T04:48:56.080Z,0.8
2022-12-24T04:51:56.193Z,0.8
2022-12-24T04:54:56.352Z,0.8
2022-12-24T04:57:55.244Z,0.8
2022-12-24T05:01:02.482Z,0.8
2022-12-24T05:03:57.155Z,0.8
2022-12-24T05:06:58.763Z,0.8
2022-12-24T05:09:52.516Z,0.8
2022-12-24T05:12:52.711Z,0.8
2022-12-24T05:15:54.384Z,0.8
2022-12-24T05:18:53.296Z,0.8
2022-12-24T05:21:53.485Z,0.8
2022-12-24T05:24:54.990Z,0.8
2022-12-24T05:27:54.031Z,0.8
2022-12-24T05:30:54.523Z,0.8
2022-12-24T05:33:54.406Z,0.8
2022-12-24T05:36:56.019Z,0.8
2022-12-24T05:39:54.868Z,0.8
2022-12-24T05:42:55.067Z,0.8
2022-12-24T05:45:56.919Z,0.8
2022-12-24T05:48:55.484Z,0.8
2022-12-24T05:51:55.729Z,0.8
2022-12-24T05:54:57.344Z,0.8
2022-12-24T05:57:56.190Z,0.8
2022-12-24T06:00:56.355Z,0.8
2022-12-24T06:03:58.531Z,0.8
2022-12-24T06:06:51.791Z,0.8
2022-12-24T06:09:52.117Z,0.8
2022-12-24T06:12:52.347Z,0.8
2022-12-24T06:15:54.243Z,0.8
2022-12-24T06:18:52.765Z,0.8
2022-12-24T06:21:52.993Z,0.8
2022-12-24T06:24:54.548Z,0.8
2022-12-24T06:27:53.411Z,0.8
2022-12-24T06:31:04.229Z,0.8
2022-12-24T06:33:55.256Z,0.8
2022-12-24T06:36:54.061Z,0.8
2022-12-24T06:39:54.371Z,0.8
2022-12-24T06:42:55.960Z,0.8
2022-12-24T06:45:54.852Z,0.8
2022-12-24T06:48:55.091Z,0.8
2022-12-24T06:51:55.272Z,0.8
2022-12-24T06:54:56.800Z,0.8
2022-12-24T06:57:55.794Z,0.8
2022-12-24T07:00:55.979Z,0.8
2022-12-24T07:03:57.798Z,0.8
2022-12-24T07:06:56.352Z,0.8
2022-12-24T07:09:56.811Z,0.8
2022-12-24T07:12:53.280Z,0.8
2022-12-24T07:15:52.428Z,0.8
2022-12-24T07:18:52.249Z,0.8
2022-12-24T07:21:54.053Z,0.9
2022-12-24T07:24:52.675Z,0.9
2022-12-24T07:27:52.931Z,0.9
2022-12-24T07:30:53.520Z,0.9
2022-12-24T07:33:54.775Z,0.9
2022-12-24T07:36:53.873Z,0.9
2022-12-24T07:39:54.138Z,0.9
2022-12-24T07:42:55.678Z,1.1
2022-12-24T07:45:54.564Z,1.1
2022-12-24T07:48:54.619Z,1.1
2022-12-24T07:51:56.285Z,1.3
2022-12-24T07:54:55.194Z,1.3
2022-12-24T07:57:55.376Z,1.3
2022-12-24T08:01:02.323Z,1.5
2022-12-24T08:03:57.007Z,1.5
2022-12-24T08:06:56.137Z,1.5
2022-12-24T08:09:56.297Z,1.5
2022-12-24T08:12:57.876Z,1.8
2022-12-24T08:15:57.051Z,1.8
2022-12-24T08:18:57.009Z,1.8
2022-12-24T08:21:53.616Z,2.1
2022-12-24T08:24:52.522Z,2.1
2022-12-24T08:27:52.749Z,2.1
2022-12-24T08:30:54.340Z,2.5
2022-12-24T08:33:53.091Z,2.5
2022-12-24T08:36:53.423Z,2.5
2022-12-24T08:39:55.002Z,2.8
2022-12-24T08:42:54.280Z,2.8
2022-12-24T08:45:54.456Z,2.8
2022-12-24T08:48:54.196Z,2.8
2022-12-24T08:51:55.915Z,3.2
2022-12-24T08:54:54.757Z,3.2
2022-12-24T08:57:55.029Z,3.2
2022-12-24T09:00:57.012Z,3.4
2022-12-24T09:03:55.352Z,3.4
2022-12-24T09:06:55.593Z,3.4
2022-12-24T09:09:57.252Z,3.6
2022-12-24T09:12:56.114Z,3.6
2022-12-24T09:15:56.502Z,3.6
2022-12-24T09:18:57.958Z,3.8
2022-12-24T09:21:56.779Z,3.8
2022-12-24T09:24:51.896Z,3.8
2022-12-24T09:27:52.321Z,3.8
2022-12-24T09:30:53.843Z,3.9
2022-12-24T09:33:52.704Z,3.9
2022-12-24T09:36:52.919Z,3.9
2022-12-24T09:39:54.483Z,4.1
2022-12-24T09:42:53.334Z,4.1
2022-12-24T09:45:54.820Z,4.1
2022-12-24T09:48:55.126Z,4.1
2022-12-24T09:51:54.091Z,4.1
2022-12-24T09:54:54.544Z,4.1
2022-12-24T09:57:55.915Z,4.1
2022-12-24T10:00:54.665Z,4.1
2022-12-24T10:03:55.342Z,4.1
2022-12-24T10:06:56.485Z,4.1
2022-12-24T10:09:55.455Z,4.1
2022-12-24T10:12:55.794Z,4.1
2022-12-24T10:15:55.963Z,4.1
2022-12-24T10:18:57.434Z,4.1
2022-12-24T10:21:56.272Z,4.1
2022-12-24T10:24:56.574Z,4.1
2022-12-24T10:27:58.213Z,4.1
2022-12-24T10:30:57.464Z,4.1
2022-12-24T10:33:52.253Z,4.1
2022-12-24T10:36:53.836Z,4.1
2022-12-24T10:39:52.572Z,4.1
2022-12-24T10:42:52.755Z,4.1
2022-12-24T10:45:54.947Z,4.1
2022-12-24T10:48:53.364Z,4.1
2022-12-24T10:51:53.609Z,4.1
2022-12-24T10:54:53.650Z,4.1
2022-12-24T10:57:55.297Z,4.1
2022-12-24T11:00:54.216Z,4.1
2022-12-24T11:03:54.901Z,4.1
2022-12-24T11:06:56.004Z,4.1
2022-12-24T11:09:54.920Z,4.1
2022-12-24T11:13:40.434Z,4.1
2022-12-24T11:15:57.182Z,4.1
2022-12-24T11:18:55.511Z,4.1
2022-12-24T11:21:55.790Z,4.1
2022-12-24T11:24:57.378Z,4.1
2022-12-24T11:27:56.264Z,4.1
2022-12-24T11:30:56.792Z,4.1
2022-12-24T11:33:56.774Z,4.1
2022-12-24T11:36:58.295Z,4.2
2022-12-24T11:39:52.258Z,4.2
2022-12-24T11:42:52.298Z,4.2
2022-12-24T11:45:54.405Z,4.2
2022-12-24T11:48:52.763Z,4.2
2022-12-24T11:51:53.085Z,4.2
2022-12-24T11:54:54.639Z,4.2
2022-12-24T11:57:53.552Z,4.2
2022-12-24T12:00:53.905Z,4.2
2022-12-24T12:04:00.751Z,4.2
2022-12-24T12:06:54.485Z,4.2
2022-12-24T12:09:54.336Z,4.2
2022-12-24T12:12:54.650Z,4.2
2022-12-24T12:15:56.561Z,4.2
2022-12-24T12:18:55.135Z,4.2
2022-12-24T12:21:55.291Z,4.2
2022-12-24T12:24:57.072Z,4.2
2022-12-24T12:27:55.728Z,4.2
2022-12-24T12:30:56.390Z,4.2
2022-12-24T12:33:57.570Z,4.2
2022-12-24T12:36:56.372Z,4.2
2022-12-24T12:39:51.794Z,4.2
2022-12-24T12:42:54.223Z,4.2
2022-12-24T12:45:52.182Z,4.2
2022-12-24T12:49:03.783Z,4.2
2022-12-24T12:51:52.617Z,4.2
2022-12-24T12:54:54.218Z,4.2
2022-12-24T12:57:53.033Z,4.2
2022-12-24T13:00:53.786Z,4.2
2022-12-24T13:03:54.983Z,4.1
2022-12-24T13:06:53.853Z,4.1
2022-12-24T13:09:54.048Z,4.1
2022-12-24T13:12:55.651Z,4.1
2022-12-24T13:15:54.609Z,4.1
2022-12-24T13:18:54.666Z,4.1
2022-12-24T13:21:56.272Z,4.1
2022-12-24T13:24:55.148Z,4.1
2022-12-24T13:27:55.394Z,4.1
2022-12-24T13:30:55.512Z,4.1
2022-12-24T13:33:57.232Z,4.1
2022-12-24T13:36:55.887Z,4.1
2022-12-24T13:39:56.282Z,4.1
2022-12-24T13:42:57.825Z,4.1
2022-12-24T13:45:57.119Z,4.1
2022-12-24T13:48:56.859Z,4.1
2022-12-24T13:51:53.466Z,4.1
2022-12-24T13:54:52.362Z,4.1
2022-12-24T13:57:52.587Z,4.1
2022-12-24T14:00:59.872Z,4.1
2022-12-24T14:03:53.142Z,4.1
2022-12-24T14:06:53.239Z,4.1
2022-12-24T14:09:53.496Z,4.1
2022-12-24T14:12:55.092Z,4.1
2022-12-24T14:15:53.940Z,4.1
2022-12-24T14:18:54.232Z,4.1
2022-12-24T14:21:55.843Z,4.1
2022-12-24T14:24:54.696Z,4.1
2022-12-24T14:27:54.938Z,4.1
2022-12-24T14:30:56.409Z,4.1
2022-12-24T14:33:55.319Z,4.1
2022-12-24T14:36:55.640Z,4.1
2022-12-24T14:39:57.308Z,4
2022-12-24T14:42:56.058Z,4
2022-12-24T14:45:56.749Z,4
2022-12-24T14:48:56.422Z,4
2022-12-24T14:51:53.167Z,3.9
2022-12-24T14:54:56.934Z,3.9
2022-12-24T14:57:52.198Z,3.9
2022-12-24T15:00:59.501Z,3.7
2022-12-24T15:03:52.634Z,3.7
2022-12-24T15:06:53.035Z,3.7
2022-12-24T15:09:54.513Z,3.4
2022-12-24T15:12:53.322Z,3.4
2022-12-24T15:15:54.138Z,3.4
2022-12-24T15:18:55.144Z,3.1
2022-12-24T15:21:53.895Z,3.1
2022-12-24T15:24:54.192Z,3.1
2022-12-24T15:27:54.396Z,3.1
2022-12-24T15:30:56.622Z,2.7
2022-12-24T15:33:54.932Z,2.7
2022-12-24T15:36:55.172Z,2.7
2022-12-24T15:39:56.732Z,2.3
2022-12-24T15:42:55.619Z,2.3
2022-12-24T15:45:56.256Z,2.3
2022-12-24T15:48:57.514Z,1.9
2022-12-24T15:51:56.299Z,1.9
2022-12-24T15:54:59.185Z,1.9
2022-12-24T15:57:53.179Z,1.5
2022-12-24T16:00:57.622Z,1.5
2022-12-24T16:03:52.990Z,1.5
2022-12-24T16:06:57.327Z,1.5
2022-12-24T16:09:54.006Z,1.2
2022-12-24T16:12:52.840Z,1.2
2022-12-24T16:15:53.540Z,1.2
2022-12-24T16:18:54.484Z,1
2022-12-24T16:21:53.312Z,1
2022-12-24T16:24:53.614Z,1
2022-12-24T16:28:08.261Z,0.9
2022-12-24T16:30:54.444Z,0.9
2022-12-24T16:33:54.339Z,0.9
2022-12-24T16:36:55.880Z,0.8
2022-12-24T16:39:54.786Z,0.8
2022-12-24T16:42:54.975Z,0.8
2022-12-24T16:45:55.584Z,0.8
2022-12-24T16:48:56.742Z,0.8
2022-12-24T16:51:55.697Z,0.8
2022-12-24T16:54:55.905Z,0.8
2022-12-24T16:57:57.487Z,0.8
2022-12-24T17:00:56.304Z,0.8
2022-12-24T17:03:56.984Z,0.8
2022-12-24T17:06:58.181Z,0.8
2022-12-24T17:09:51.947Z,0.8
2022-12-24T17:12:52.177Z,0.8
2022-12-24T17:15:54.238Z,0.8
2022-12-24T17:18:52.729Z,0.8
2022-12-24T17:21:52.972Z,0.8
2022-12-24T17:24:53.215Z,0.8
2022-12-24T17:27:54.785Z,0.8
2022-12-24T17:30:53.949Z,0.8
2022-12-24T17:33:53.877Z,0.8
2022-12-24T17:36:55.527Z,0.8
2022-12-24T17:39:54.465Z,0.8
2022-12-24T17:42:54.469Z,0.8
2022-12-24T17:45:56.110Z,0.8
2022-12-24T17:48:54.958Z,0.8
2022-12-24T17:51:55.210Z,0.8
2022-12-24T17:55:01.832Z,0.8
2022-12-24T17:57:55.557Z,0.8
2022-12-24T18:00:55.824Z,0.8
2022-12-24T18:03:56.553Z,0.8
2022-12-24T18:07:04.710Z,0.8
2022-12-24T18:09:51.529Z,0.8
2022-12-24T18:12:56.770Z,0.8
2022-12-24T18:15:58.723Z,0.8
2022-12-24T18:18:52.215Z,0.8
2022-12-24T18:21:52.520Z,0.8
2022-12-24T18:24:53.963Z,0.8
2022-12-24T18:27:52.836Z,0.8
2022-12-24T18:30:53.269Z,0.8
2022-12-24T18:33:54.692Z,0.8
2022-12-24T18:36:56.219Z,0.8
2022-12-24T18:39:53.837Z,0.8
2022-12-24T18:42:54.087Z,0.8
2022-12-24T18:45:55.706Z,0.8
2022-12-24T18:48:54.495Z,0.8
2022-12-24T18:51:54.688Z,0.8
2022-12-24T18:54:56.400Z,0.8
2022-12-24T18:57:55.216Z,0.8
2022-12-24T19:00:55.758Z,0.8
2022-12-24T19:03:57.023Z,0.8
2022-12-24T19:06:55.808Z,0.8
2022-12-24T19:09:56.145Z,0.8
2022-12-24T19:12:57.628Z,0.8
2022-12-24T19:15:56.832Z,0.8
2022-12-24T19:18:56.760Z,0.8
2022-12-24T19:21:51.951Z,0.8
2022-12-24T19:24:53.625Z,0.8
2022-12-24T19:27:52.529Z,0.8
2022-12-24T19:30:52.738Z,0.8
2022-12-24T19:33:54.295Z,0.8
2022-12-24T19:36:53.081Z,0.8
2022-12-24T19:39:53.373Z,0.8
2022-12-24T19:42:55.897Z,0.8
2022-12-24T19:45:54.443Z,0.8
2022-12-24T19:48:53.952Z,0.8
2022-12-24T19:51:55.630Z,0.8
2022-12-24T19:54:54.574Z,0.8
2022-12-24T19:57:54.777Z,0.8
2022-12-24T20:00:55.328Z,0.8
2022-12-24T20:03:56.609Z,0.8
2022-12-24T20:07:01.446Z,0.8
2022-12-24T20:09:55.657Z,0.8
2022-12-24T20:13:07.498Z,0.8
2022-12-24T20:15:56.083Z,0.8
2022-12-24T20:18:56.434Z,0.8
2022-12-24T20:21:53.037Z,0.8
2022-12-24T20:24:56.775Z,0.8
2022-12-24T20:27:51.994Z,0.8
2022-12-24T20:30:58.697Z,0.8
2022-12-24T20:33:58.515Z,0.8
2022-12-24T20:36:52.608Z,0.8
2022-12-24T20:39:52.914Z,0.8
2022-12-24T20:42:54.490Z,0.8
2022-12-24T20:45:53.730Z,0.8
2022-12-24T20:48:53.664Z,0.8
2022-12-24T20:51:55.250Z,0.8
2022-12-24T20:54:55.050Z,0.8
2022-12-24T20:57:54.349Z,0.8
2022-12-24T21:00:56.153Z,0.8
2022-12-24T21:03:54.883Z,0.8
2022-12-24T21:06:54.917Z,0.8
2022-12-24T21:09:56.631Z,0.8
2022-12-24T21:12:55.458Z,0.8
2022-12-24T21:15:55.700Z,0.8
2022-12-24T21:18:55.890Z,0.8
2022-12-24T21:21:57.396Z,0.8
2022-12-24T21:24:56.333Z,0.8
2022-12-24T21:27:51.763Z,0.8
2022-12-24T21:30:53.522Z,0.8
2022-12-24T21:33:51.994Z,0.8
2022-12-24T21:36:52.246Z,0.8
2022-12-24T21:39:53.836Z,0.8
2022-12-24T21:42:52.628Z,0.8
2022-12-24T21:45:53.293Z,0.8
2022-12-24T21:48:54.494Z,0.8
2022-12-24T21:51:53.327Z,0.8
2022-12-24T21:54:53.586Z,0.8
2022-12-24T21:57:54.287Z,0.8
2022-12-24T22:00:55.742Z,0.8
2022-12-24T22:03:54.319Z,0.8
2022-12-24T22:06:54.544Z,0.8
2022-12-24T22:09:56.188Z,0.8
2022-12-24T22:12:55.113Z,0.8
2022-12-24T22:15:55.207Z,0.8
2022-12-24T22:18:56.826Z,0.8
2022-12-24T22:21:55.767Z,0.8
2022-12-24T22:24:55.856Z,0.8
2022-12-24T22:27:57.488Z,0.8
2022-12-24T22:30:56.783Z,0.8
2022-12-24T22:33:56.593Z,0.8
2022-12-24T22:36:51.797Z,0.8
2022-12-24T22:39:53.385Z,0.8
2022-12-24T22:42:52.136Z,0.8
2022-12-24T22:45:52.849Z,0.8
2022-12-24T22:48:54.147Z,0.8
2022-12-24T22:51:52.940Z,0.8
2022-12-24T22:54:53.109Z,0.8
2022-12-24T22:57:54.712Z,0.8
2022-12-24T23:00:54.398Z,0.8
2022-12-24T23:03:54.067Z,0.8
2022-12-24T23:06:55.378Z,0.8
2022-12-24T23:09:54.276Z,0.8
2022-12-24T23:12:54.449Z,0.8
2022-12-24T23:15:54.998Z,0.8
2022-12-24T23:18:56.400Z,0.8
2022-12-24T23:21:55.222Z,0.8
2022-12-24T23:24:55.389Z,0.8
2022-12-24T23:27:56.970Z,0.8
2022-12-24T23:30:56.202Z,0.8
2022-12-24T23:33:56.020Z,0.8
2022-12-24T23:36:57.662Z,0.8
2022-12-24T23:39:56.607Z,0.8
2022-12-24T23:42:51.768Z,0.8
2022-12-24T23:46:04.064Z,0.8
2022-12-24T23:48:52.166Z,0.8
2022-12-24T23:51:52.450Z,0.8
2022-12-24T23:54:52.764Z,0.8
2022-12-24T23:57:54.245Z,0.8
